sensor_id;sensor_type;location;lat;lon;timestamp;pressure;altitude;pressure_sealevel;temperature;humidity
46087;BME280;31824;49.648;8.640;2022-12-18T00:03:08;101696.50;;;-8.25;100.00
46087;BME280;31824;49.648;8.640;2022-12-18T00:06:10;101678.34;;;-8.40;100.00
46087;BME280;31824;49.648;8.640;2022-12-18T00:09:14;101683.84;;;-8.29;100.00
46087;BME280;31824;49.648;8.640;2022-12-18T00:12:16;101677.00;;;-8.70;100.00
46087;BME280;31824;49.648;8.640;2022-12-18T00:15:19;101681.34;;;-8.83;100.00
46087;BME280;31824;49.648;8.640;2022-12-18T00:18:21;101672.91;;;-8.74;100.00
46087;BME280;31824;49.648;8.640;2022-12-18T00:21:22;101678.25;;;-8.36;100.00
46087;BME280;31824;49.648;8.640;2022-12-18T00:24:25;101682.81;;;-8.43;100.00
46087;BME280;31824;49.648;8.640;2022-12-18T00:27:27;101672.38;;;-8.45;100.00
46087;BME280;31824;49.648;8.640;2022-12-18T00:30:29;101674.81;;;-8.55;100.00
46087;BME280;31824;49.648;8.640;2022-12-18T00:33:32;101675.16;;;-8.57;100.00
46087;BME280;31824;49.648;8.640;2022-12-18T00:36:34;101681.47;;;-8.91;100.00
46087;BME280;31824;49.648;8.640;2022-12-18T00:39:37;101693.28;;;-8.92;100.00
46087;BME280;31824;49.648;8.640;2022-12-18T00:42:39;101681.41;;;-8.87;100.00
46087;BME280;31824;49.648;8.640;2022-12-18T00:45:59;101679.31;;;-8.58;100.00
46087;BME280;31824;49.648;8.640;2022-12-18T00:49:01;101680.13;;;-8.67;100.00
46087;BME280;31824;49.648;8.640;2022-12-18T00:52:03;101690.72;;;-8.92;100.00
46087;BME280;31824;49.648;8.640;2022-12-18T00:55:07;101686.84;;;-8.90;100.00
46087;BME280;31824;49.648;8.640;2022-12-18T00:58:10;101685.84;;;-8.68;100.00
46087;BME280;31824;49.648;8.640;2022-12-18T01:01:12;101679.47;;;-8.66;100.00
46087;BME280;31824;49.648;8.640;2022-12-18T01:04:14;101674.81;;;-8.55;100.00
46087;BME280;31824;49.648;8.640;2022-12-18T01:07:19;101682.59;;;-8.81;100.00
46087;BME280;31824;49.648;8.640;2022-12-18T01:10:23;101667.66;;;-8.66;100.00
46087;BME280;31824;49.648;8.640;2022-12-18T01:13:25;101672.72;;;-9.02;100.00
46087;BME280;31824;49.648;8.640;2022-12-18T01:16:27;101679.31;;;-9.16;100.00
46087;BME280;31824;49.648;8.640;2022-12-18T01:19:28;101686.78;;;-8.86;100.00
46087;BME280;31824;49.648;8.640;2022-12-18T01:22:30;101672.69;;;-8.79;100.00
46087;BME280;31824;49.648;8.640;2022-12-18T01:25:38;101671.72;;;-8.80;100.00
46087;BME280;31824;49.648;8.640;2022-12-18T01:28:42;101678.34;;;-8.76;100.00
46087;BME280;31824;49.648;8.640;2022-12-18T01:31:45;101672.91;;;-8.92;100.00
46087;BME280;31824;49.648;8.640;2022-12-18T01:34:47;101675.31;;;-9.06;100.00
46087;BME280;31824;49.648;8.640;2022-12-18T01:37:48;101694.13;;;-9.05;100.00
46087;BME280;31824;49.648;8.640;2022-12-18T01:40:57;101692.59;;;-8.91;100.00
46087;BME280;31824;49.648;8.640;2022-12-18T01:43:59;101680.34;;;-8.79;100.00
46087;BME280;31824;49.648;8.640;2022-12-18T01:47:01;101675.75;;;-8.72;100.00
46087;BME280;31824;49.648;8.640;2022-12-18T01:50:07;101689.38;;;-9.08;100.00
46087;BME280;31824;49.648;8.640;2022-12-18T01:53:13;101706.34;;;-9.17;100.00
46087;BME280;31824;49.648;8.640;2022-12-18T01:56:18;101708.97;;;-9.21;100.00
46087;BME280;31824;49.648;8.640;2022-12-18T01:59:21;101715.09;;;-9.24;100.00
46087;BME280;31824;49.648;8.640;2022-12-18T02:02:23;101704.00;;;-9.29;100.00
46087;BME280;31824;49.648;8.640;2022-12-18T02:05:36;101697.31;;;-9.06;100.00
46087;BME280;31824;49.648;8.640;2022-12-18T02:08:49;101704.44;;;-9.13;100.00
46087;BME280;31824;49.648;8.640;2022-12-18T02:11:59;101702.84;;;-8.95;100.00
46087;BME280;31824;49.648;8.640;2022-12-18T02:15:10;101698.66;;;-8.90;100.00
46087;BME280;31824;49.648;8.640;2022-12-18T02:18:18;101700.44;;;-9.03;100.00
46087;BME280;31824;49.648;8.640;2022-12-18T02:21:27;101705.38;;;-8.95;100.00
46087;BME280;31824;49.648;8.640;2022-12-18T02:24:35;101706.50;;;-9.03;100.00
46087;BME280;31824;49.648;8.640;2022-12-18T02:27:45;101704.38;;;-8.91;100.00
46087;BME280;31824;49.648;8.640;2022-12-18T02:30:50;101708.28;;;-8.97;100.00
46087;BME280;31824;49.648;8.640;2022-12-18T02:33:56;101701.75;;;-9.05;100.00
46087;BME280;31824;49.648;8.640;2022-12-18T02:37:05;101687.75;;;-9.07;100.00
46087;BME280;31824;49.648;8.640;2022-12-18T02:40:10;101678.00;;;-9.14;100.00
46087;BME280;31824;49.648;8.640;2022-12-18T02:43:15;101656.44;;;-9.38;100.00
46087;BME280;31824;49.648;8.640;2022-12-18T02:46:26;101653.59;;;-9.62;100.00
46087;BME280;31824;49.648;8.640;2022-12-18T02:49:35;101658.63;;;-9.80;100.00
46087;BME280;31824;49.648;8.640;2022-12-18T02:52:42;101658.97;;;-9.60;100.00
46087;BME280;31824;49.648;8.640;2022-12-18T02:55:59;101658.56;;;-9.54;100.00
46087;BME280;31824;49.648;8.640;2022-12-18T02:59:09;101639.91;;;-9.85;100.00
46087;BME280;31824;49.648;8.640;2022-12-18T03:02:26;101655.47;;;-9.83;100.00
46087;BME280;31824;49.648;8.640;2022-12-18T03:05:34;101657.75;;;-9.89;100.00
46087;BME280;31824;49.648;8.640;2022-12-18T03:08:41;101655.25;;;-9.93;100.00
46087;BME280;31824;49.648;8.640;2022-12-18T03:11:45;101676.31;;;-9.98;100.00
46087;BME280;31824;49.648;8.640;2022-12-18T03:15:14;101680.09;;;-9.96;100.00
46087;BME280;31824;49.648;8.640;2022-12-18T03:18:24;101675.03;;;-9.74;100.00
46087;BME280;31824;49.648;8.640;2022-12-18T03:21:32;101682.44;;;-9.57;100.00
46087;BME280;31824;49.648;8.640;2022-12-18T03:24:36;101687.50;;;-9.53;100.00
46087;BME280;31824;49.648;8.640;2022-12-18T03:27:44;101695.91;;;-9.40;100.00
46087;BME280;31824;49.648;8.640;2022-12-18T03:30:56;101700.53;;;-9.29;100.00
46087;BME280;31824;49.648;8.640;2022-12-18T03:34:03;101685.38;;;-9.38;100.00
46087;BME280;31824;49.648;8.640;2022-12-18T03:37:15;101664.16;;;-9.46;100.00
46087;BME280;31824;49.648;8.640;2022-12-18T03:40:17;101649.25;;;-9.27;100.00
46087;BME280;31824;49.648;8.640;2022-12-18T03:43:34;101647.56;;;-9.40;100.00
46087;BME280;31824;49.648;8.640;2022-12-18T03:46:43;101659.25;;;-9.59;100.00
46087;BME280;31824;49.648;8.640;2022-12-18T03:49:56;101673.81;;;-9.76;100.00
46087;BME280;31824;49.648;8.640;2022-12-18T03:53:04;101668.78;;;-9.80;100.00
46087;BME280;31824;49.648;8.640;2022-12-18T03:56:09;101666.13;;;-9.72;100.00
46087;BME280;31824;49.648;8.640;2022-12-18T03:59:14;101663.75;;;-9.84;100.00
46087;BME280;31824;49.648;8.640;2022-12-18T04:02:20;101674.63;;;-9.67;100.00
46087;BME280;31824;49.648;8.640;2022-12-18T04:05:25;101660.75;;;-9.73;100.00
46087;BME280;31824;49.648;8.640;2022-12-18T04:08:28;101666.41;;;-9.70;100.00
46087;BME280;31824;49.648;8.640;2022-12-18T04:11:36;101672.16;;;-9.71;100.00
46087;BME280;31824;49.648;8.640;2022-12-18T04:14:39;101675.66;;;-9.71;100.00
46087;BME280;31824;49.648;8.640;2022-12-18T04:17:47;101667.91;;;-9.89;100.00
46087;BME280;31824;49.648;8.640;2022-12-18T04:20:51;101660.91;;;-9.86;100.00
46087;BME280;31824;49.648;8.640;2022-12-18T04:23:53;101662.03;;;-9.75;100.00
46087;BME280;31824;49.648;8.640;2022-12-18T04:26:56;101658.78;;;-9.70;100.00
46087;BME280;31824;49.648;8.640;2022-12-18T04:30:02;101659.84;;;-9.78;100.00
46087;BME280;31824;49.648;8.640;2022-12-18T04:33:09;101658.91;;;-9.78;100.00
46087;BME280;31824;49.648;8.640;2022-12-18T04:36:12;101647.97;;;-9.69;100.00
46087;BME280;31824;49.648;8.640;2022-12-18T04:39:14;101642.19;;;-9.64;100.00
46087;BME280;31824;49.648;8.640;2022-12-18T04:42:16;101654.84;;;-9.60;100.00
46087;BME280;31824;49.648;8.640;2022-12-18T04:45:18;101642.84;;;-9.65;100.00
46087;BME280;31824;49.648;8.640;2022-12-18T04:48:21;101642.19;;;-9.64;100.00
46087;BME280;31824;49.648;8.640;2022-12-18T04:51:23;101650.06;;;-9.58;100.00
46087;BME280;31824;49.648;8.640;2022-12-18T04:54:27;101662.38;;;-9.52;100.00
46087;BME280;31824;49.648;8.640;2022-12-18T04:57:29;101653.91;;;-9.38;100.00
46087;BME280;31824;49.648;8.640;2022-12-18T05:00:31;101659.75;;;-9.47;100.00
46087;BME280;31824;49.648;8.640;2022-12-18T05:03:35;101664.50;;;-9.45;100.00
46087;BME280;31824;49.648;8.640;2022-12-18T05:06:37;101657.16;;;-9.43;100.00
46087;BME280;31824;49.648;8.640;2022-12-18T05:09:39;101666.41;;;-9.48;100.00
46087;BME280;31824;49.648;8.640;2022-12-18T05:12:41;101662.94;;;-9.48;100.00
46087;BME280;31824;49.648;8.640;2022-12-18T05:16:01;101674.66;;;-9.45;100.00
46087;BME280;31824;49.648;8.640;2022-12-18T05:19:05;101677.22;;;-9.45;100.00
46087;BME280;31824;49.648;8.640;2022-12-18T05:22:06;101688.44;;;-9.53;100.00
46087;BME280;31824;49.648;8.640;2022-12-18T05:25:08;101692.09;;;-9.64;100.00
46087;BME280;31824;49.648;8.640;2022-12-18T05:28:10;101686.78;;;-9.70;100.00
46087;BME280;31824;49.648;8.640;2022-12-18T05:31:12;101706.38;;;-9.61;100.00
46087;BME280;31824;49.648;8.640;2022-12-18T05:34:16;101694.50;;;-9.30;100.00
46087;BME280;31824;49.648;8.640;2022-12-18T05:37:17;101688.19;;;-9.14;100.00
46087;BME280;31824;49.648;8.640;2022-12-18T05:40:19;101676.59;;;-9.04;100.00
46087;BME280;31824;49.648;8.640;2022-12-18T05:43:22;101680.53;;;-9.14;100.00
46087;BME280;31824;49.648;8.640;2022-12-18T05:46:24;101681.78;;;-9.30;100.00
46087;BME280;31824;49.648;8.640;2022-12-18T05:49:27;101685.84;;;-9.71;100.00
46087;BME280;31824;49.648;8.640;2022-12-18T05:52:30;101675.03;;;-9.47;100.00
46087;BME280;31824;49.648;8.640;2022-12-18T05:55:33;101673.41;;;-9.69;100.00
46087;BME280;31824;49.648;8.640;2022-12-18T05:58:34;101661.75;;;-9.55;100.00
46087;BME280;31824;49.648;8.640;2022-12-18T06:01:36;101670.09;;;-9.60;100.00
46087;BME280;31824;49.648;8.640;2022-12-18T06:04:40;101675.59;;;-9.44;100.00
46087;BME280;31824;49.648;8.640;2022-12-18T06:07:42;101681.84;;;-9.34;100.00
46087;BME280;31824;49.648;8.640;2022-12-18T06:10:49;101694.84;;;-9.32;100.00
46087;BME280;31824;49.648;8.640;2022-12-18T06:13:54;101692.00;;;-9.34;100.00
46087;BME280;31824;49.648;8.640;2022-12-18T06:16:59;101682.69;;;-9.29;100.00
46087;BME280;31824;49.648;8.640;2022-12-18T06:20:04;101696.91;;;-9.22;100.00
46087;BME280;31824;49.648;8.640;2022-12-18T06:23:06;101706.34;;;-9.17;100.00
46087;BME280;31824;49.648;8.640;2022-12-18T06:26:09;101697.50;;;-9.19;100.00
46087;BME280;31824;49.648;8.640;2022-12-18T06:29:11;101696.00;;;-9.04;100.00
46087;BME280;31824;49.648;8.640;2022-12-18T06:32:13;101705.06;;;-9.14;100.00
46087;BME280;31824;49.648;8.640;2022-12-18T06:35:16;101701.16;;;-9.30;100.00
46087;BME280;31824;49.648;8.640;2022-12-18T06:38:18;101712.66;;;-9.10;100.00
46087;BME280;31824;49.648;8.640;2022-12-18T06:41:20;101718.16;;;-9.17;100.00
46087;BME280;31824;49.648;8.640;2022-12-18T06:44:22;101733.38;;;-9.35;100.00
46087;BME280;31824;49.648;8.640;2022-12-18T06:47:24;101728.28;;;-9.35;100.00
46087;BME280;31824;49.648;8.640;2022-12-18T06:50:27;101737.25;;;-9.41;100.00
46087;BME280;31824;49.648;8.640;2022-12-18T06:53:29;101735.38;;;-9.69;100.00
46087;BME280;31824;49.648;8.640;2022-12-18T06:56:31;101735.97;;;-9.39;100.00
46087;BME280;31824;49.648;8.640;2022-12-18T06:59:33;101735.91;;;-9.61;100.00
46087;BME280;31824;49.648;8.640;2022-12-18T07:02:34;101740.16;;;-9.44;100.00
46087;BME280;31824;49.648;8.640;2022-12-18T07:05:40;101752.41;;;-9.33;100.00
46087;BME280;31824;49.648;8.640;2022-12-18T07:08:42;101759.06;;;-9.29;100.00
46087;BME280;31824;49.648;8.640;2022-12-18T07:11:44;101770.06;;;-9.21;100.00
46087;BME280;31824;49.648;8.640;2022-12-18T07:14:46;101769.41;;;-9.42;100.00
46087;BME280;31824;49.648;8.640;2022-12-18T07:17:48;101767.44;;;-9.39;100.00
46087;BME280;31824;49.648;8.640;2022-12-18T07:20:51;101766.44;;;-9.35;100.00
46087;BME280;31824;49.648;8.640;2022-12-18T07:23:53;101764.19;;;-9.34;100.00
46087;BME280;31824;49.648;8.640;2022-12-18T07:26:55;101770.69;;;-9.44;100.00
46087;BME280;31824;49.648;8.640;2022-12-18T07:29:57;101772.69;;;-9.51;100.00
46087;BME280;31824;49.648;8.640;2022-12-18T07:32:58;101775.66;;;-9.36;100.00
46087;BME280;31824;49.648;8.640;2022-12-18T07:36:02;101769.75;;;-9.22;100.00
46087;BME280;31824;49.648;8.640;2022-12-18T07:39:05;101765.53;;;-9.13;100.00
46087;BME280;31824;49.648;8.640;2022-12-18T07:42:07;101755.63;;;-9.12;100.00
46087;BME280;31824;49.648;8.640;2022-12-18T07:45:31;101754.09;;;-9.16;100.00
46087;BME280;31824;49.648;8.640;2022-12-18T07:48:33;101732.72;;;-9.34;100.00
46087;BME280;31824;49.648;8.640;2022-12-18T07:51:36;101731.34;;;-9.28;100.00
46087;BME280;31824;49.648;8.640;2022-12-18T07:54:38;101743.25;;;-9.37;100.00
46087;BME280;31824;49.648;8.640;2022-12-18T07:57:39;101739.91;;;-9.27;100.00
46087;BME280;31824;49.648;8.640;2022-12-18T08:00:52;101744.59;;;-9.21;100.00
46087;BME280;31824;49.648;8.640;2022-12-18T08:03:54;101746.22;;;-9.21;100.00
46087;BME280;31824;49.648;8.640;2022-12-18T08:06:57;101748.00;;;-9.34;100.00
46087;BME280;31824;49.648;8.640;2022-12-18T08:09:59;101749.38;;;-9.44;100.00
46087;BME280;31824;49.648;8.640;2022-12-18T08:13:01;101762.38;;;-9.65;100.00
46087;BME280;31824;49.648;8.640;2022-12-18T08:16:07;101773.63;;;-9.77;100.00
46087;BME280;31824;49.648;8.640;2022-12-18T08:19:09;101779.50;;;-9.60;100.00
46087;BME280;31824;49.648;8.640;2022-12-18T08:22:12;101775.97;;;-9.87;100.00
46087;BME280;31824;49.648;8.640;2022-12-18T08:25:14;101776.72;;;-9.70;100.00
46087;BME280;31824;49.648;8.640;2022-12-18T08:28:16;101769.06;;;-9.39;100.00
46087;BME280;31824;49.648;8.640;2022-12-18T08:31:18;101766.75;;;-9.34;100.00
46087;BME280;31824;49.648;8.640;2022-12-18T08:34:21;101777.63;;;-9.17;100.00
46087;BME280;31824;49.648;8.640;2022-12-18T08:37:24;101774.38;;;-9.34;100.00
46087;BME280;31824;49.648;8.640;2022-12-18T08:40:26;101776.28;;;-9.59;100.00
46087;BME280;31824;49.648;8.640;2022-12-18T08:43:28;101757.59;;;-9.63;100.00
46087;BME280;31824;49.648;8.640;2022-12-18T08:46:48;101744.13;;;-9.32;100.00
46087;BME280;31824;49.648;8.640;2022-12-18T08:49:50;101739.69;;;-9.33;100.00
46087;BME280;31824;49.648;8.640;2022-12-18T08:52:53;101731.63;;;-9.26;100.00
46087;BME280;31824;49.648;8.640;2022-12-18T08:55:56;101739.03;;;-9.10;100.00
46087;BME280;31824;49.648;8.640;2022-12-18T08:58:58;101744.41;;;-9.04;100.00
46087;BME280;31824;49.648;8.640;2022-12-18T09:02:00;101738.97;;;-9.06;100.00
46087;BME280;31824;49.648;8.640;2022-12-18T09:05:03;101727.59;;;-8.90;100.00
46087;BME280;31824;49.648;8.640;2022-12-18T09:08:07;101717.91;;;-8.83;100.00
46087;BME280;31824;49.648;8.640;2022-12-18T09:11:13;101706.66;;;-8.75;100.00
46087;BME280;31824;49.648;8.640;2022-12-18T09:14:15;101702.97;;;-8.63;100.00
46087;BME280;31824;49.648;8.640;2022-12-18T09:17:17;101699.38;;;-8.41;100.00
46087;BME280;31824;49.648;8.640;2022-12-18T09:20:19;101696.75;;;-8.37;100.00
46087;BME280;31824;49.648;8.640;2022-12-18T09:23:23;101704.09;;;-8.21;100.00
46087;BME280;31824;49.648;8.640;2022-12-18T09:26:25;101711.69;;;-8.35;100.00
46087;BME280;31824;49.648;8.640;2022-12-18T09:29:27;101714.00;;;-8.22;100.00
46087;BME280;31824;49.648;8.640;2022-12-18T09:32:30;101722.88;;;-8.02;100.00
46087;BME280;31824;49.648;8.640;2022-12-18T09:35:32;101730.00;;;-8.27;100.00
46087;BME280;31824;49.648;8.640;2022-12-18T09:38:40;101730.00;;;-8.09;100.00
46087;BME280;31824;49.648;8.640;2022-12-18T09:41:45;101734.31;;;-7.86;100.00
46087;BME280;31824;49.648;8.640;2022-12-18T09:44:50;101726.41;;;-7.88;100.00
46087;BME280;31824;49.648;8.640;2022-12-18T09:47:54;101726.28;;;-7.98;100.00
46087;BME280;31824;49.648;8.640;2022-12-18T09:50:59;101732.88;;;-7.62;100.00
46087;BME280;31824;49.648;8.640;2022-12-18T09:54:05;101738.28;;;-7.47;100.00
46087;BME280;31824;49.648;8.640;2022-12-18T09:57:13;101748.59;;;-7.51;100.00
46087;BME280;31824;49.648;8.640;2022-12-18T10:00:18;101759.91;;;-7.13;100.00
46087;BME280;31824;49.648;8.640;2022-12-18T10:03:21;101762.53;;;-7.17;100.00
46087;BME280;31824;49.648;8.640;2022-12-18T10:06:26;101754.41;;;-7.24;100.00
46087;BME280;31824;49.648;8.640;2022-12-18T10:09:34;101750.44;;;-6.90;100.00
46087;BME280;31824;49.648;8.640;2022-12-18T10:12:42;101753.09;;;-6.66;100.00
46087;BME280;31824;49.648;8.640;2022-12-18T10:15:56;101756.03;;;-6.69;100.00
46087;BME280;31824;49.648;8.640;2022-12-18T10:19:15;101746.28;;;-6.24;100.00
46087;BME280;31824;49.648;8.640;2022-12-18T10:22:26;101754.38;;;-6.54;100.00
46087;BME280;31824;49.648;8.640;2022-12-18T10:25:35;101750.53;;;-6.29;100.00
46087;BME280;31824;49.648;8.640;2022-12-18T10:28:40;101748.78;;;-6.10;100.00
46087;BME280;31824;49.648;8.640;2022-12-18T10:31:43;101740.84;;;-6.12;100.00
46087;BME280;31824;49.648;8.640;2022-12-18T10:34:46;101736.31;;;-5.65;100.00
46087;BME280;31824;49.648;8.640;2022-12-18T10:38:02;101728.09;;;-5.92;100.00
46087;BME280;31824;49.648;8.640;2022-12-18T10:41:23;101730.00;;;-6.15;100.00
46087;BME280;31824;49.648;8.640;2022-12-18T10:44:28;101726.25;;;-6.17;100.00
46087;BME280;31824;49.648;8.640;2022-12-18T10:47:29;101723.06;;;-6.30;100.00
46087;BME280;31824;49.648;8.640;2022-12-18T10:50:33;101711.00;;;-6.21;100.00
46087;BME280;31824;49.648;8.640;2022-12-18T10:53:57;101722.88;;;-6.21;100.00
46087;BME280;31824;49.648;8.640;2022-12-18T10:57:29;101721.19;;;-5.97;100.00
46087;BME280;31824;49.648;8.640;2022-12-18T11:00:31;101734.09;;;-6.49;100.00
46087;BME280;31824;49.648;8.640;2022-12-18T11:03:34;101728.69;;;-6.36;100.00
46087;BME280;31824;49.648;8.640;2022-12-18T11:06:53;101727.03;;;-6.22;100.00
46087;BME280;31824;49.648;8.640;2022-12-18T11:10:00;101741.19;;;-5.81;100.00
46087;BME280;31824;49.648;8.640;2022-12-18T11:13:17;101738.56;;;-5.77;100.00
46087;BME280;31824;49.648;8.640;2022-12-18T11:16:20;101725.88;;;-5.37;100.00
46087;BME280;31824;49.648;8.640;2022-12-18T11:19:30;101724.06;;;-5.09;100.00
46087;BME280;31824;49.648;8.640;2022-12-18T11:22:34;101718.03;;;-5.43;100.00
46087;BME280;31824;49.648;8.640;2022-12-18T11:25:37;101728.47;;;-6.04;100.00
46087;BME280;31824;49.648;8.640;2022-12-18T11:28:43;101718.34;;;-5.75;100.00
46087;BME280;31824;49.648;8.640;2022-12-18T11:31:46;101717.88;;;-5.58;100.00
46087;BME280;31824;49.648;8.640;2022-12-18T11:34:52;101731.25;;;-5.46;100.00
46087;BME280;31824;49.648;8.640;2022-12-18T11:38:02;101735.59;;;-5.74;100.00
46087;BME280;31824;49.648;8.640;2022-12-18T11:41:14;101733.16;;;-5.45;100.00
46087;BME280;31824;49.648;8.640;2022-12-18T11:44:26;101735.16;;;-5.48;100.00
46087;BME280;31824;49.648;8.640;2022-12-18T11:47:34;101728.91;;;-5.11;100.00
46087;BME280;31824;49.648;8.640;2022-12-18T11:50:45;101719.47;;;-5.06;100.00
46087;BME280;31824;49.648;8.640;2022-12-18T11:53:48;101709.59;;;-5.18;100.00
46087;BME280;31824;49.648;8.640;2022-12-18T11:56:53;101706.88;;;-5.44;100.00
46087;BME280;31824;49.648;8.640;2022-12-18T12:00:03;101695.22;;;-4.69;100.00
46087;BME280;31824;49.648;8.640;2022-12-18T12:03:24;101689.41;;;-4.78;100.00
46087;BME280;31824;49.648;8.640;2022-12-18T12:06:33;101693.44;;;-5.13;100.00
46087;BME280;31824;49.648;8.640;2022-12-18T12:09:47;101698.31;;;-4.66;100.00
46087;BME280;31824;49.648;8.640;2022-12-18T12:13:12;101711.13;;;-4.56;100.00
46087;BME280;31824;49.648;8.640;2022-12-18T12:16:22;101708.94;;;-5.17;100.00
46087;BME280;31824;49.648;8.640;2022-12-18T12:19:36;101713.00;;;-4.94;100.00
46087;BME280;31824;49.648;8.640;2022-12-18T12:22:44;101717.47;;;-4.93;100.00
46087;BME280;31824;49.648;8.640;2022-12-18T12:26:08;101727.19;;;-4.96;100.00
46087;BME280;31824;49.648;8.640;2022-12-18T12:29:24;101716.34;;;-5.19;100.00
46087;BME280;31824;49.648;8.640;2022-12-18T12:32:45;101707.09;;;-4.50;100.00
46087;BME280;31824;49.648;8.640;2022-12-18T12:35:54;101701.31;;;-4.14;100.00
46087;BME280;31824;49.648;8.640;2022-12-18T12:39:01;101692.22;;;-4.47;100.00
46087;BME280;31824;49.648;8.640;2022-12-18T12:42:04;101707.22;;;-5.03;100.00
46087;BME280;31824;49.648;8.640;2022-12-18T12:45:30;101693.19;;;-4.66;100.00
46087;BME280;31824;49.648;8.640;2022-12-18T12:48:42;101678.34;;;-5.02;100.00
46087;BME280;31824;49.648;8.640;2022-12-18T12:51:49;101674.56;;;-4.65;100.00
46087;BME280;31824;49.648;8.640;2022-12-18T12:54:56;101681.88;;;-4.62;100.00
46087;BME280;31824;49.648;8.640;2022-12-18T12:58:06;101680.78;;;-4.78;100.00
46087;BME280;31824;49.648;8.640;2022-12-18T13:01:17;101664.44;;;-4.88;100.00
46087;BME280;31824;49.648;8.640;2022-12-18T13:04:30;101641.13;;;-5.10;100.00
46087;BME280;31824;49.648;8.640;2022-12-18T13:07:40;101641.00;;;-5.15;100.00
46087;BME280;31824;49.648;8.640;2022-12-18T13:10:43;101627.09;;;-4.92;100.00
46087;BME280;31824;49.648;8.640;2022-12-18T13:13:49;101634.56;;;-4.49;100.00
46087;BME280;31824;49.648;8.640;2022-12-18T13:20:35;101605.63;;;-4.83;100.00
46087;BME280;31824;49.648;8.640;2022-12-18T13:23:37;101605.22;;;-4.80;100.00
46087;BME280;31824;49.648;8.640;2022-12-18T13:26:40;101603.47;;;-4.76;100.00
46087;BME280;31824;49.648;8.640;2022-12-18T13:29:44;101599.84;;;-4.37;100.00
46087;BME280;31824;49.648;8.640;2022-12-18T13:32:47;101601.19;;;-4.29;100.00
46087;BME280;31824;49.648;8.640;2022-12-18T13:36:01;101604.94;;;-4.62;100.00
46087;BME280;31824;49.648;8.640;2022-12-18T13:39:25;101601.50;;;-4.57;100.00
46087;BME280;31824;49.648;8.640;2022-12-18T13:42:39;101600.91;;;-4.31;100.00
46087;BME280;31824;49.648;8.640;2022-12-18T13:46:01;101590.84;;;-4.45;100.00
46087;BME280;31824;49.648;8.640;2022-12-18T13:49:20;101590.50;;;-4.71;100.00
46087;BME280;31824;49.648;8.640;2022-12-18T13:52:26;101596.84;;;-4.60;100.00
46087;BME280;31824;49.648;8.640;2022-12-18T13:55:29;101595.38;;;-4.73;100.00
46087;BME280;31824;49.648;8.640;2022-12-18T13:58:31;101609.25;;;-4.77;100.00
46087;BME280;31824;49.648;8.640;2022-12-18T14:01:33;101601.94;;;-4.50;100.00
46087;BME280;31824;49.648;8.640;2022-12-18T14:04:35;101598.72;;;-4.68;100.00
46087;BME280;31824;49.648;8.640;2022-12-18T14:07:38;101600.34;;;-4.69;100.00
46087;BME280;31824;49.648;8.640;2022-12-18T14:10:49;101597.00;;;-4.83;100.00
46087;BME280;31824;49.648;8.640;2022-12-18T14:13:52;101586.41;;;-4.65;100.00
46087;BME280;31824;49.648;8.640;2022-12-18T14:16:54;101589.84;;;-4.90;100.00
46087;BME280;31824;49.648;8.640;2022-12-18T14:19:57;101587.16;;;-4.96;100.00
46087;BME280;31824;49.648;8.640;2022-12-18T14:23:00;101587.94;;;-4.91;100.00
46087;BME280;31824;49.648;8.640;2022-12-18T14:26:20;101593.53;;;-4.94;100.00
46087;BME280;31824;49.648;8.640;2022-12-18T14:29:24;101594.69;;;-4.82;100.00
46087;BME280;31824;49.648;8.640;2022-12-18T14:32:26;101599.84;;;-4.92;100.00
46087;BME280;31824;49.648;8.640;2022-12-18T14:35:28;101597.00;;;-4.93;100.00
46087;BME280;31824;49.648;8.640;2022-12-18T14:38:33;101607.69;;;-5.05;100.00
46087;BME280;31824;49.648;8.640;2022-12-18T14:41:36;101615.63;;;-5.14;100.00
46087;BME280;31824;49.648;8.640;2022-12-18T14:44:40;101602.81;;;-5.04;100.00
46087;BME280;31824;49.648;8.640;2022-12-18T14:48:06;101604.81;;;-5.17;100.00
46087;BME280;31824;49.648;8.640;2022-12-18T14:51:15;101599.03;;;-5.26;100.00
46087;BME280;31824;49.648;8.640;2022-12-18T14:54:23;101606.88;;;-5.30;100.00
46087;BME280;31824;49.648;8.640;2022-12-18T14:57:30;101602.41;;;-5.31;100.00
46087;BME280;31824;49.648;8.640;2022-12-18T15:00:34;101599.72;;;-5.27;100.00
46087;BME280;31824;49.648;8.640;2022-12-18T15:03:43;101590.81;;;-5.29;100.00
46087;BME280;31824;49.648;8.640;2022-12-18T15:06:45;101592.44;;;-5.39;100.00
46087;BME280;31824;49.648;8.640;2022-12-18T15:10:08;101588.94;;;-5.49;100.00
46087;BME280;31824;49.648;8.640;2022-12-18T15:13:20;101575.56;;;-5.52;100.00
46087;BME280;31824;49.648;8.640;2022-12-18T15:16:23;101579.88;;;-5.57;100.00
46087;BME280;31824;49.648;8.640;2022-12-18T15:19:34;101572.88;;;-5.58;100.00
46087;BME280;31824;49.648;8.640;2022-12-18T15:22:37;101578.00;;;-5.58;100.00
46087;BME280;31824;49.648;8.640;2022-12-18T15:25:40;101583.78;;;-5.59;100.00
46087;BME280;31824;49.648;8.640;2022-12-18T15:28:45;101583.91;;;-5.63;100.00
46087;BME280;31824;49.648;8.640;2022-12-18T15:31:58;101583.78;;;-5.59;100.00
46087;BME280;31824;49.648;8.640;2022-12-18T15:35:13;101581.09;;;-5.55;100.00
46087;BME280;31824;49.648;8.640;2022-12-18T15:38:14;101573.69;;;-5.53;100.00
46087;BME280;31824;49.648;8.640;2022-12-18T15:41:19;101576.53;;;-5.52;100.00
46087;BME280;31824;49.648;8.640;2022-12-18T15:44:25;101580.69;;;-5.62;100.00
46087;BME280;31824;49.648;8.640;2022-12-18T15:47:27;101580.28;;;-5.69;100.00
46087;BME280;31824;49.648;8.640;2022-12-18T15:50:29;101577.72;;;-5.79;100.00
46087;BME280;31824;49.648;8.640;2022-12-18T15:53:32;101573.41;;;-5.65;100.00
46087;BME280;31824;49.648;8.640;2022-12-18T15:56:36;101568.69;;;-5.67;100.00
46087;BME280;31824;49.648;8.640;2022-12-18T15:59:57;101574.38;;;-5.64;100.00
46087;BME280;31824;49.648;8.640;2022-12-18T16:03:00;101579.47;;;-5.64;100.00
46087;BME280;31824;49.648;8.640;2022-12-18T16:06:02;101581.75;;;-5.66;100.00